createdAt,value
2017-10-09T00:00:23.201Z,0
2017-10-09T00:01:25.625Z,0
2017-10-09T00:02:28.040Z,0
2017-10-09T00:03:30.813Z,0
2017-10-09T00:04:33.228Z,0
2017-10-09T00:05:35.665Z,0
2017-10-09T00:06:38.087Z,0
2017-10-09T00:07:40.516Z,0
2017-10-09T00:08:42.922Z,0
2017-10-09T00:09:45.347Z,0
2017-10-09T00:10:47.770Z,0
2017-10-09T00:11:50.191Z,0
2017-10-09T00:12:52.606Z,0
2017-10-09T00:13:55.028Z,0
2017-10-09T00:14:57.452Z,0
2017-10-09T00:15:59.886Z,0
2017-10-09T00:17:02.308Z,0
2017-10-09T00:18:04.725Z,0
2017-10-09T00:19:07.497Z,0
2017-10-09T00:20:09.912Z,0
2017-10-09T00:21:12.336Z,0
2017-10-09T00:22:14.755Z,0
2017-10-09T00:23:17.173Z,0
2017-10-09T00:24:19.935Z,0
2017-10-09T00:25:22.352Z,0
2017-10-09T00:26:24.769Z,0
2017-10-09T00:27:27.210Z,0
2017-10-09T00:28:29.631Z,0
2017-10-09T00:29:32.048Z,0
2017-10-09T00:30:34.475Z,0
2017-10-09T00:31:36.896Z,0
2017-10-09T00:32:39.308Z,0
2017-10-09T00:33:41.731Z,0
2017-10-09T00:34:44.157Z,0
2017-10-09T00:35:46.577Z,0
2017-10-09T00:36:49.002Z,0
2017-10-09T00:37:51.430Z,0
2017-10-09T00:38:53.846Z,0
2017-10-09T00:39:56.273Z,0
2017-10-09T00:40:58.694Z,0
2017-10-09T00:42:01.121Z,0
2017-10-09T00:43:03.538Z,0
2017-10-09T00:44:06.314Z,0
2017-10-09T00:45:08.732Z,0
2017-10-09T00:46:11.155Z,0
2017-10-09T00:47:13.576Z,0
2017-10-09T00:48:16.335Z,0
2017-10-09T00:49:18.765Z,0
2017-10-09T00:50:21.190Z,0
2017-10-09T00:51:23.601Z,0
2017-10-09T00:52:26.023Z,0
2017-10-09T00:53:28.450Z,0
2017-10-09T00:54:30.867Z,0
2017-10-09T00:55:33.295Z,0
2017-10-09T00:56:35.722Z,0
2017-10-09T00:57:38.147Z,0
2017-10-09T00:58:40.574Z,0
2017-10-09T00:59:43.005Z,0
2017-10-09T01:00:45.413Z,0
2017-10-09T01:01:47.846Z,0
2017-10-09T01:02:50.265Z,0
2017-10-09T01:03:52.686Z,0
2017-10-09T01:04:55.108Z,0
2017-10-09T01:05:57.525Z,0
2017-10-09T01:06:59.957Z,0
2017-10-09T01:08:02.368Z,0
2017-10-09T01:09:04.800Z,0
2017-10-09T01:10:07.221Z,0
2017-10-09T01:11:09.648Z,0
2017-10-09T01:12:12.069Z,0
2017-10-09T01:13:14.487Z,0
2017-10-09T01:14:16.902Z,0
2017-10-09T01:15:19.328Z,0
2017-10-09T01:16:22.078Z,0
2017-10-09T01:17:24.514Z,0
2017-10-09T01:18:26.936Z,0
2017-10-09T01:19:29.347Z,0
2017-10-09T01:20:31.770Z,0
2017-10-09T01:21:34.194Z,0
2017-10-09T01:22:36.611Z,0
2017-10-09T01:23:39.041Z,0
2017-10-09T01:24:41.453Z,0
2017-10-09T01:25:43.867Z,0
2017-10-09T01:26:46.305Z,0
2017-10-09T01:27:48.715Z,0
2017-10-09T01:28:51.143Z,0
2017-10-09T01:29:53.566Z,0
2017-10-09T01:30:56.000Z,0
2017-10-09T01:31:58.406Z,0
2017-10-09T01:33:00.831Z,0
2017-10-09T01:34:03.259Z,0
2017-10-09T01:35:05.675Z,0
2017-10-09T01:36:08.100Z,0
2017-10-09T01:37:10.526Z,0
2017-10-09T01:38:13.623Z,0
2017-10-09T01:39:16.053Z,0
2017-10-09T01:40:18.477Z,0
2017-10-09T01:41:20.888Z,0
2017-10-09T01:42:23.310Z,0
2017-10-09T01:43:25.734Z,0
2017-10-09T01:44:28.161Z,0
2017-10-09T01:45:30.577Z,0
2017-10-09T01:46:32.993Z,0
2017-10-09T01:47:35.412Z,0
2017-10-09T01:48:37.835Z,0
2017-10-09T01:49:40.253Z,0
2017-10-09T01:50:42.675Z,0
2017-10-09T01:51:45.088Z,0
2017-10-09T01:52:47.513Z,0
2017-10-09T01:53:49.936Z,0
2017-10-09T01:54:52.696Z,0
2017-10-09T01:55:55.121Z,0
2017-10-09T01:56:57.539Z,0
2017-10-09T01:58:00.322Z,0
2017-10-09T01:59:02.738Z,0
2017-10-09T02:00:05.154Z,0
2017-10-09T02:01:07.576Z,0
2017-10-09T02:02:09.997Z,0
2017-10-09T02:03:12.422Z,0
2017-10-09T02:04:14.843Z,0
2017-10-09T02:05:17.272Z,0
2017-10-09T02:06:19.693Z,0
2017-10-09T02:07:22.097Z,0
2017-10-09T02:08:24.526Z,0
2017-10-09T02:09:26.936Z,0
2017-10-09T02:10:29.363Z,0
2017-10-09T02:11:31.785Z,0
2017-10-09T02:12:34.202Z,0
2017-10-09T02:13:36.629Z,0
2017-10-09T02:14:39.061Z,0
2017-10-09T02:15:41.471Z,0
2017-10-09T02:16:43.893Z,0
2017-10-09T02:17:46.318Z,0
2017-10-09T02:18:48.733Z,0
2017-10-09T02:19:51.158Z,0
2017-10-09T02:20:53.586Z,0
2017-10-09T02:21:55.996Z,0
2017-10-09T02:22:58.430Z,0
2017-10-09T02:24:00.845Z,0
2017-10-09T02:25:03.274Z,0
2017-10-09T02:26:05.691Z,0
2017-10-09T02:27:08.492Z,0
2017-10-09T02:28:10.901Z,0
2017-10-09T02:29:13.674Z,0
2017-10-09T02:30:16.098Z,0
2017-10-09T02:31:18.848Z,0
2017-10-09T02:32:21.264Z,0
2017-10-09T02:33:23.702Z,0
2017-10-09T02:34:26.462Z,0
2017-10-09T02:35:28.885Z,0
2017-10-09T02:36:31.303Z,0
2017-10-09T02:37:33.722Z,0
2017-10-09T02:38:36.143Z,0
2017-10-09T02:39:38.575Z,0
2017-10-09T02:40:40.985Z,0
2017-10-09T02:41:43.405Z,0
2017-10-09T02:42:46.187Z,0
2017-10-09T02:43:48.969Z,0
2017-10-09T02:44:52.079Z,0
2017-10-09T02:45:54.833Z,0
2017-10-09T02:46:57.253Z,0
2017-10-09T02:47:59.678Z,0
2017-10-09T02:49:02.099Z,0
2017-10-09T02:50:04.527Z,0
2017-10-09T02:51:06.941Z,0
2017-10-09T02:52:09.372Z,0
2017-10-09T02:53:12.472Z,0
2017-10-09T02:54:14.900Z,0
2017-10-09T02:55:17.303Z,0
2017-10-09T02:56:19.725Z,0
2017-10-09T02:57:22.148Z,0
2017-10-09T02:58:24.568Z,0
2017-10-09T02:59:26.993Z,0
2017-10-09T03:00:29.416Z,0
2017-10-09T03:01:31.838Z,0
2017-10-09T03:02:34.264Z,0
2017-10-09T03:03:36.676Z,0
2017-10-09T03:04:39.109Z,0
2017-10-09T03:05:41.535Z,0
2017-10-09T03:06:43.945Z,0
2017-10-09T03:07:46.378Z,0
2017-10-09T03:08:48.795Z,0
2017-10-09T03:09:51.223Z,0
2017-10-09T03:10:53.646Z,0
2017-10-09T03:11:56.065Z,0
2017-10-09T03:12:58.481Z,0
2017-10-09T03:14:00.914Z,0
2017-10-09T03:15:03.333Z,0
2017-10-09T03:16:06.468Z,0
2017-10-09T03:17:08.890Z,0
2017-10-09T03:18:11.311Z,0
2017-10-09T03:19:13.746Z,0
2017-10-09T03:20:16.167Z,0
2017-10-09T03:21:18.581Z,0
2017-10-09T03:22:21.006Z,0
2017-10-09T03:23:23.423Z,0
2017-10-09T03:24:25.848Z,0
2017-10-09T03:25:28.263Z,0
2017-10-09T03:26:30.688Z,0
2017-10-09T03:27:33.102Z,0
2017-10-09T03:28:35.539Z,0
2017-10-09T03:29:37.963Z,0
2017-10-09T03:30:40.372Z,0
2017-10-09T03:31:42.797Z,0
2017-10-09T03:32:45.562Z,0
2017-10-09T03:33:47.986Z,0
2017-10-09T03:34:50.422Z,0
2017-10-09T03:35:52.835Z,0
2017-10-09T03:36:55.258Z,0
2017-10-09T03:37:57.691Z,0
2017-10-09T03:39:00.107Z,0
2017-10-09T03:40:02.536Z,0
2017-10-09T03:41:04.950Z,0
2017-10-09T03:42:07.377Z,0
2017-10-09T03:43:09.794Z,0
2017-10-09T03:44:12.574Z,0
2017-10-09T03:45:14.996Z,0
2017-10-09T03:46:17.420Z,0
2017-10-09T03:47:19.842Z,0
2017-10-09T03:48:22.263Z,0
2017-10-09T03:49:24.684Z,0
2017-10-09T03:50:27.105Z,0
2017-10-09T03:51:29.517Z,0
2017-10-09T03:52:31.937Z,0
2017-10-09T03:53:34.356Z,0
2017-10-09T03:54:36.771Z,0
2017-10-09T03:55:39.534Z,0
2017-10-09T03:56:41.955Z,0
2017-10-09T03:57:44.375Z,0
2017-10-09T03:58:46.802Z,0
2017-10-09T03:59:49.219Z,0
2017-10-09T04:00:51.642Z,0
2017-10-09T04:01:54.065Z,0
2017-10-09T04:02:56.493Z,0
2017-10-09T04:03:58.908Z,0
2017-10-09T04:05:01.333Z,0
2017-10-09T04:06:03.760Z,0
2017-10-09T04:07:06.180Z,0
2017-10-09T04:08:08.936Z,0
2017-10-09T04:09:11.362Z,0
2017-10-09T04:10:13.781Z,0
2017-10-09T04:11:16.211Z,0
2017-10-09T04:12:18.623Z,0
2017-10-09T04:13:21.040Z,0
2017-10-09T04:14:23.456Z,0
2017-10-09T04:15:25.880Z,0
2017-10-09T04:16:28.302Z,0
2017-10-09T04:17:30.730Z,0
2017-10-09T04:18:33.135Z,0
2017-10-09T04:19:35.560Z,0
2017-10-09T04:20:37.981Z,0
2017-10-09T04:21:40.402Z,0
2017-10-09T04:22:43.165Z,0
2017-10-09T04:23:45.587Z,0
2017-10-09T04:24:48.007Z,0
2017-10-09T04:25:50.439Z,0
2017-10-09T04:26:53.188Z,0
2017-10-09T04:27:55.613Z,0
2017-10-09T04:28:58.028Z,0
2017-10-09T04:30:00.456Z,0
2017-10-09T04:31:02.877Z,0
2017-10-09T04:32:05.300Z,0
2017-10-09T04:33:07.725Z,0
2017-10-09T04:34:10.149Z,0
2017-10-09T04:35:12.568Z,0
2017-10-09T04:36:15.002Z,0
2017-10-09T04:37:17.404Z,0
2017-10-09T04:38:19.830Z,0
2017-10-09T04:39:22.601Z,0
2017-10-09T04:40:25.016Z,0
2017-10-09T04:41:27.435Z,0
2017-10-09T04:42:30.534Z,0
2017-10-09T04:43:32.945Z,0
2017-10-09T04:44:35.383Z,0
2017-10-09T04:45:37.796Z,0
2017-10-09T04:46:40.218Z,0
2017-10-09T04:47:42.642Z,0
2017-10-09T04:48:45.055Z,0
2017-10-09T04:49:47.841Z,0
2017-10-09T04:50:50.266Z,0
2017-10-09T04:51:53.020Z,0
2017-10-09T04:52:55.441Z,0
2017-10-09T04:53:57.874Z,4
2017-10-09T04:55:00.290Z,4
2017-10-09T04:56:03.056Z,0
2017-10-09T04:57:05.478Z,4
2017-10-09T04:58:07.902Z,4
2017-10-09T04:59:10.321Z,4
2017-10-09T05:00:12.749Z,4
2017-10-09T05:01:15.166Z,4
2017-10-09T05:02:17.592Z,4
2017-10-09T05:03:20.009Z,8
2017-10-09T05:04:22.446Z,12
2017-10-09T05:05:24.849Z,12
2017-10-09T05:06:27.262Z,16
2017-10-09T05:07:29.682Z,20
2017-10-09T05:08:32.101Z,20
2017-10-09T05:09:34.517Z,24
2017-10-09T05:10:36.951Z,32
2017-10-09T05:11:39.382Z,40
2017-10-09T05:12:41.812Z,44
2017-10-09T05:13:44.233Z,56
2017-10-09T05:14:46.652Z,60
2017-10-09T05:15:49.067Z,76
2017-10-09T05:16:51.498Z,84
2017-10-09T05:17:53.902Z,96
2017-10-09T05:18:56.327Z,116
2017-10-09T05:19:58.748Z,136
2017-10-09T05:21:01.168Z,152
2017-10-09T05:22:03.592Z,176
2017-10-09T05:23:06.009Z,196
2017-10-09T05:24:08.424Z,220
2017-10-09T05:25:10.854Z,248
2017-10-09T05:26:13.274Z,276
2017-10-09T05:27:15.685Z,308
2017-10-09T05:28:18.112Z,344
2017-10-09T05:29:20.539Z,384
2017-10-09T05:30:23.290Z,420
2017-10-09T05:31:25.710Z,460
2017-10-09T05:32:28.136Z,504
2017-10-09T05:33:30.558Z,552
2017-10-09T05:34:32.969Z,600
2017-10-09T05:35:35.397Z,648
2017-10-09T05:36:37.814Z,700
2017-10-09T05:37:40.235Z,748
2017-10-09T05:38:42.655Z,800
2017-10-09T05:39:45.076Z,860
2017-10-09T05:40:47.851Z,912
2017-10-09T05:41:50.275Z,972
2017-10-09T05:42:52.689Z,1028
2017-10-09T05:43:55.110Z,1088
2017-10-09T05:44:57.519Z,1144
2017-10-09T05:45:59.943Z,1204
2017-10-09T05:47:02.359Z,1260
2017-10-09T05:48:04.784Z,1320
2017-10-09T05:49:07.192Z,1384
2017-10-09T05:50:09.612Z,1444
2017-10-09T05:51:12.039Z,1512
2017-10-09T05:52:14.459Z,1564
2017-10-09T05:53:16.878Z,1616
2017-10-09T05:54:19.298Z,1680
2017-10-09T05:55:21.712Z,1736
2017-10-09T05:56:24.136Z,1792
2017-10-09T05:57:26.545Z,1856
2017-10-09T05:58:28.980Z,1908
2017-10-09T05:59:31.404Z,1960
2017-10-09T06:00:33.822Z,2012
2017-10-09T06:01:36.235Z,2068
2017-10-09T06:02:38.648Z,2124
2017-10-09T06:03:41.070Z,2176
2017-10-09T06:04:43.842Z,2244
2017-10-09T06:05:46.251Z,2284
2017-10-09T06:06:48.670Z,2344
2017-10-09T06:07:51.095Z,2404
2017-10-09T06:08:53.516Z,2448
2017-10-09T06:09:55.942Z,2508
2017-10-09T06:10:58.358Z,2556
2017-10-09T06:12:00.785Z,2608
2017-10-09T06:13:03.209Z,2648
2017-10-09T06:14:05.632Z,2704
2017-10-09T06:15:08.059Z,2736
2017-10-09T06:16:10.475Z,2784
2017-10-09T06:17:12.908Z,2832
2017-10-09T06:18:15.324Z,2868
2017-10-09T06:19:17.738Z,2920
2017-10-09T06:20:20.504Z,2972
2017-10-09T06:21:22.929Z,3016
2017-10-09T06:22:25.689Z,3056
2017-10-09T06:23:28.122Z,3104
2017-10-09T06:24:30.529Z,3156
2017-10-09T06:25:32.952Z,3216
2017-10-09T06:26:35.377Z,3248
2017-10-09T06:27:37.790Z,3284
2017-10-09T06:28:40.217Z,3332
2017-10-09T06:29:42.639Z,3392
2017-10-09T06:30:45.057Z,3448
2017-10-09T06:31:47.474Z,3504
2017-10-09T06:32:49.891Z,3524
2017-10-09T06:33:52.321Z,3580
2017-10-09T06:34:54.743Z,3616
2017-10-09T06:35:57.165Z,3688
2017-10-09T06:36:59.589Z,3688
2017-10-09T06:38:02.008Z,3732
2017-10-09T06:39:04.780Z,3764
2017-10-09T06:40:07.206Z,3572
2017-10-09T06:41:09.623Z,3768
2017-10-09T06:42:12.052Z,3904
2017-10-09T06:43:14.468Z,3940
2017-10-09T06:44:16.889Z,3988
2017-10-09T06:45:19.312Z,4052
2017-10-09T06:46:22.072Z,4080
2017-10-09T06:47:24.494Z,4116
2017-10-09T06:48:26.923Z,4164
2017-10-09T06:49:29.334Z,4196
2017-10-09T06:50:31.773Z,4252
2017-10-09T06:51:34.196Z,4304
2017-10-09T06:52:36.612Z,4368
2017-10-09T06:53:39.038Z,4412
2017-10-09T06:54:41.457Z,4464
2017-10-09T06:55:43.877Z,4508
2017-10-09T06:56:46.287Z,4532
2017-10-09T06:57:48.722Z,4580
2017-10-09T06:58:51.138Z,4644
2017-10-09T06:59:53.550Z,4704
2017-10-09T07:00:55.978Z,4748
2017-10-09T07:01:58.395Z,4796
2017-10-09T07:03:00.819Z,4852
2017-10-09T07:04:03.253Z,4916
2017-10-09T07:05:05.676Z,4964
2017-10-09T07:06:08.600Z,5036
2017-10-09T07:07:11.376Z,5152
2017-10-09T07:08:13.800Z,5260
2017-10-09T07:09:16.220Z,7316
2017-10-09T07:10:18.643Z,16660
2017-10-09T07:11:21.069Z,20672
2017-10-09T07:12:23.500Z,20384
2017-10-09T07:13:25.916Z,28416
2017-10-09T07:14:28.342Z,32448
2017-10-09T07:15:30.765Z,34624
2017-10-09T07:16:33.192Z,37952
2017-10-09T07:17:35.616Z,36064
2017-10-09T07:18:38.379Z,36864
2017-10-09T07:19:40.807Z,41440
2017-10-09T07:20:43.232Z,36256
2017-10-09T07:21:45.662Z,33536
2017-10-09T07:22:48.430Z,31840
2017-10-09T07:23:50.841Z,33760
2017-10-09T07:24:53.264Z,35680
2017-10-09T07:25:55.697Z,37984
2017-10-09T07:26:58.118Z,39264
2017-10-09T07:28:00.539Z,37920
2017-10-09T07:29:02.972Z,38848
2017-10-09T07:30:05.400Z,42080
2017-10-09T07:31:07.808Z,44544
2017-10-09T07:32:10.237Z,49280
2017-10-09T07:33:12.661Z,67616
2017-10-09T07:34:15.078Z,92064
2017-10-09T07:35:17.508Z,79552
2017-10-09T07:36:20.263Z,46752
2017-10-09T07:37:22.691Z,38400
2017-10-09T07:38:25.126Z,35136
2017-10-09T07:39:27.550Z,37088
2017-10-09T07:40:29.966Z,44640
2017-10-09T07:41:32.392Z,58176
2017-10-09T07:42:34.814Z,42912
2017-10-09T07:43:37.245Z,37728
2017-10-09T07:44:39.684Z,43968
2017-10-09T07:45:42.102Z,49760
2017-10-09T07:46:44.529Z,48160
2017-10-09T07:47:47.343Z,45280
2017-10-09T07:48:49.762Z,34720
2017-10-09T07:49:52.197Z,34880
2017-10-09T07:50:54.627Z,18336
2017-10-09T07:51:57.051Z,21376
2017-10-09T07:52:59.492Z,17236
2017-10-09T07:54:01.923Z,20288
2017-10-09T07:55:04.349Z,23200
2017-10-09T07:56:06.783Z,15940
2017-10-09T07:57:09.202Z,16516
2017-10-09T07:58:11.636Z,51040
2017-10-09T07:59:14.407Z,20064
2017-10-09T08:00:16.842Z,19520
2017-10-09T08:01:19.610Z,79040
2017-10-09T08:02:22.048Z,36032
2017-10-09T08:03:24.468Z,23424
2017-10-09T08:04:26.915Z,48416
2017-10-09T08:05:29.342Z,20768
2017-10-09T08:06:31.778Z,19392
2017-10-09T08:07:34.214Z,18336
2017-10-09T08:08:36.639Z,17512
2017-10-09T08:09:39.069Z,17328
2017-10-09T08:10:41.494Z,18496
2017-10-09T08:11:43.919Z,18368
2017-10-09T08:12:46.343Z,17944
2017-10-09T08:13:48.788Z,17316
2017-10-09T08:14:51.207Z,16988
2017-10-09T08:15:53.646Z,17216
2017-10-09T08:16:56.074Z,17384
2017-10-09T08:17:58.843Z,17404
2017-10-09T08:19:01.278Z,17496
2017-10-09T08:20:03.709Z,17920
2017-10-09T08:21:06.129Z,18528
2017-10-09T08:22:08.564Z,18688
2017-10-09T08:23:11.334Z,18368
2017-10-09T08:24:13.772Z,17888
2017-10-09T08:25:16.203Z,17584
2017-10-09T08:26:18.637Z,16520
2017-10-09T08:27:21.074Z,15824
2017-10-09T08:28:23.832Z,15704
2017-10-09T08:29:26.261Z,16100
2017-10-09T08:30:28.704Z,16592
2017-10-09T08:31:31.124Z,16644
2017-10-09T08:32:33.551Z,16172
2017-10-09T08:33:35.982Z,15648
2017-10-09T08:34:38.406Z,15056
2017-10-09T08:35:40.849Z,14444
2017-10-09T08:36:43.286Z,13868
2017-10-09T08:37:45.700Z,13812
2017-10-09T08:38:48.132Z,14576
2017-10-09T08:39:50.567Z,15384
2017-10-09T08:40:53.000Z,15328
2017-10-09T08:41:55.428Z,14620
2017-10-09T08:42:57.861Z,13900
2017-10-09T08:44:00.291Z,12628
2017-10-09T08:45:02.728Z,11612
2017-10-09T08:46:05.155Z,12236
2017-10-09T08:47:07.586Z,13724
2017-10-09T08:48:10.030Z,14916
2017-10-09T08:49:12.448Z,16504
2017-10-09T08:50:14.878Z,18880
2017-10-09T08:51:17.306Z,18912
2017-10-09T08:52:19.731Z,20640
2017-10-09T08:53:22.170Z,22592
2017-10-09T08:54:24.593Z,31424
2017-10-09T08:55:27.025Z,24544
2017-10-09T08:56:29.464Z,21888
2017-10-09T08:57:31.903Z,22560
2017-10-09T08:58:34.336Z,18688
2017-10-09T08:59:36.764Z,22144
2017-10-09T09:00:39.187Z,24448
2017-10-09T09:01:41.629Z,25248
2017-10-09T09:02:44.055Z,27008
2017-10-09T09:03:46.483Z,27552
2017-10-09T09:04:48.916Z,28480
2017-10-09T09:05:53.482Z,28448
2017-10-09T09:06:55.916Z,30016
2017-10-09T09:07:58.352Z,27424
2017-10-09T09:09:00.771Z,30720
2017-10-09T09:10:03.577Z,32640
2017-10-09T09:11:06.005Z,37600
2017-10-09T09:12:08.425Z,35136
2017-10-09T09:13:10.873Z,37824
2017-10-09T09:14:13.306Z,65088
2017-10-09T09:15:15.750Z,66048
2017-10-09T09:16:18.184Z,63520
2017-10-09T09:17:20.619Z,42272
2017-10-09T09:18:23.045Z,30816
2017-10-09T09:19:25.485Z,33696
2017-10-09T09:20:27.909Z,35808
2017-10-09T09:21:30.345Z,33984
2017-10-09T09:22:32.786Z,25504
2017-10-09T09:23:35.210Z,21120
2017-10-09T09:24:37.643Z,19488
2017-10-09T09:25:40.086Z,19296
2017-10-09T09:26:42.507Z,17876
2017-10-09T09:27:44.944Z,17476
2017-10-09T09:28:47.374Z,16992
2017-10-09T09:29:50.151Z,15292
2017-10-09T09:30:52.589Z,13860
2017-10-09T09:31:55.029Z,13156
2017-10-09T09:32:57.486Z,13132
2017-10-09T09:33:59.924Z,14140
2017-10-09T09:35:02.362Z,15956
2017-10-09T09:36:04.799Z,17964
2017-10-09T09:37:07.227Z,20384
2017-10-09T09:38:10.009Z,22656
2017-10-09T09:39:12.435Z,25664
2017-10-09T09:40:14.862Z,29344
2017-10-09T09:41:17.287Z,33472
2017-10-09T09:42:19.722Z,39584
2017-10-09T09:43:22.142Z,46688
2017-10-09T09:44:24.585Z,43200
2017-10-09T09:45:27.022Z,50016
2017-10-09T09:46:29.441Z,70144
2017-10-09T09:47:31.886Z,74080
2017-10-09T09:48:34.315Z,79136
2017-10-09T09:49:36.752Z,56640
2017-10-09T09:50:39.183Z,30304
2017-10-09T09:51:41.616Z,29824
2017-10-09T09:52:44.040Z,29920
2017-10-09T09:53:46.483Z,29728
2017-10-09T09:54:49.251Z,28192
2017-10-09T09:55:51.678Z,27136
2017-10-09T09:56:54.108Z,25696
2017-10-09T09:57:56.542Z,25024
2017-10-09T09:58:58.970Z,23840
2017-10-09T10:00:01.404Z,21888
2017-10-09T10:01:03.849Z,19616
2017-10-09T10:02:06.277Z,16084
2017-10-09T10:03:08.716Z,13724
2017-10-09T10:04:11.154Z,13216
2017-10-09T10:05:13.596Z,13468
2017-10-09T10:06:16.026Z,13636
2017-10-09T10:07:18.462Z,13492
2017-10-09T10:08:20.885Z,13256
2017-10-09T10:09:23.368Z,12984
2017-10-09T10:10:26.143Z,13300
2017-10-09T10:11:28.923Z,14264
2017-10-09T10:12:31.364Z,14860
2017-10-09T10:13:33.796Z,15128
2017-10-09T10:14:36.220Z,15184
2017-10-09T10:15:38.666Z,15272
2017-10-09T10:16:41.437Z,15424
2017-10-09T10:17:43.870Z,15672
2017-10-09T10:18:46.644Z,16036
2017-10-09T10:19:49.075Z,16072
2017-10-09T10:20:51.506Z,16292
2017-10-09T10:21:54.314Z,18188
2017-10-09T10:22:56.742Z,22080
2017-10-09T10:23:59.174Z,24704
2017-10-09T10:25:01.606Z,25184
2017-10-09T10:26:04.041Z,25728
2017-10-09T10:27:06.819Z,27552
2017-10-09T10:28:09.240Z,29088
2017-10-09T10:29:11.684Z,31136
2017-10-09T10:30:14.109Z,33888
2017-10-09T10:31:16.532Z,33888
2017-10-09T10:32:18.968Z,39008
2017-10-09T10:33:21.736Z,39040
2017-10-09T10:34:24.175Z,36256
2017-10-09T10:35:26.955Z,34880
2017-10-09T10:36:29.368Z,35200
2017-10-09T10:37:31.804Z,37536
2017-10-09T10:38:34.238Z,35392
2017-10-09T10:39:36.672Z,34976
2017-10-09T10:40:39.095Z,32864
2017-10-09T10:41:41.524Z,33728
2017-10-09T10:42:43.949Z,34528
2017-10-09T10:43:46.729Z,32000
2017-10-09T10:44:49.154Z,31040
2017-10-09T10:45:51.595Z,35392
2017-10-09T10:46:54.022Z,35712
2017-10-09T10:47:56.454Z,32832
2017-10-09T10:48:58.892Z,35744
2017-10-09T10:50:01.332Z,35616
2017-10-09T10:51:03.761Z,39680
2017-10-09T10:52:06.194Z,42496
2017-10-09T10:53:08.624Z,45888
2017-10-09T10:54:11.064Z,43936
2017-10-09T10:55:13.500Z,35616
2017-10-09T10:56:15.936Z,33696
2017-10-09T10:57:18.370Z,35296
2017-10-09T10:58:20.807Z,40384
2017-10-09T10:59:23.227Z,33280
2017-10-09T11:00:25.665Z,28800
2017-10-09T11:01:28.086Z,29184
2017-10-09T11:02:30.871Z,43008
2017-10-09T11:03:33.295Z,27360
2017-10-09T11:04:35.727Z,26272
2017-10-09T11:05:38.154Z,30016
2017-10-09T11:06:40.591Z,55456
2017-10-09T11:07:43.032Z,140768
2017-10-09T11:08:45.453Z,126848
2017-10-09T11:09:47.885Z,131904
2017-10-09T11:10:50.321Z,126816
2017-10-09T11:11:52.747Z,107744
2017-10-09T11:12:55.183Z,90272
2017-10-09T11:13:57.606Z,41696
2017-10-09T11:15:00.077Z,30656
2017-10-09T11:16:02.818Z,46528
2017-10-09T11:17:05.268Z,23616
2017-10-09T11:18:07.698Z,15772
2017-10-09T11:19:10.135Z,15916
2017-10-09T11:20:12.571Z,19584
2017-10-09T11:21:15.003Z,26688
2017-10-09T11:22:17.430Z,26688
2017-10-09T11:23:19.871Z,111232
2017-10-09T11:24:22.315Z,34944
2017-10-09T11:25:24.750Z,29696
2017-10-09T11:26:27.185Z,21248
2017-10-09T11:27:29.621Z,21024
2017-10-09T11:28:32.396Z,22112
2017-10-09T11:29:34.826Z,20224
2017-10-09T11:30:37.262Z,18880
2017-10-09T11:31:39.692Z,17460
2017-10-09T11:32:42.125Z,16752
2017-10-09T11:33:44.576Z,15084
2017-10-09T11:34:47.012Z,12636
2017-10-09T11:35:49.442Z,10584
2017-10-09T11:36:51.882Z,9476
2017-10-09T11:37:54.318Z,9016
2017-10-09T11:38:56.764Z,8668
2017-10-09T11:39:59.208Z,8208
2017-10-09T11:41:01.624Z,8232
2017-10-09T11:42:04.068Z,8188
2017-10-09T11:43:06.517Z,7364
2017-10-09T11:44:08.945Z,6760
2017-10-09T11:45:11.393Z,6520
2017-10-09T11:46:14.160Z,7780
2017-10-09T11:47:16.589Z,8904
2017-10-09T11:48:19.038Z,10672
2017-10-09T11:49:21.476Z,12708
2017-10-09T11:50:23.900Z,13104
2017-10-09T11:51:26.334Z,10492
2017-10-09T11:52:28.774Z,7984
2017-10-09T11:53:31.209Z,7040
2017-10-09T11:54:33.655Z,7376
2017-10-09T11:55:36.095Z,8408
2017-10-09T11:56:38.524Z,8660
2017-10-09T11:57:40.969Z,8796
2017-10-09T11:58:43.409Z,8940
2017-10-09T11:59:45.829Z,8976
2017-10-09T12:00:48.613Z,8624
2017-10-09T12:01:51.036Z,7092
2017-10-09T12:02:53.473Z,7204
2017-10-09T12:03:55.905Z,9580
2017-10-09T12:04:58.343Z,10948
2017-10-09T12:06:00.772Z,12272
2017-10-09T12:07:03.212Z,14660
2017-10-09T12:08:05.985Z,17400
2017-10-09T12:09:08.413Z,19360
2017-10-09T12:10:10.846Z,19488
2017-10-09T12:11:13.280Z,18528
2017-10-09T12:12:15.722Z,19168
2017-10-09T12:13:18.154Z,19360
2017-10-09T12:14:20.580Z,21120
2017-10-09T12:15:23.019Z,22592
2017-10-09T12:16:25.788Z,20640
2017-10-09T12:17:28.225Z,20960
2017-10-09T12:18:30.651Z,22560
2017-10-09T12:19:33.082Z,24256
2017-10-09T12:20:35.505Z,31296
2017-10-09T12:21:38.296Z,34016
2017-10-09T12:22:40.723Z,32352
2017-10-09T12:23:43.501Z,38080
2017-10-09T12:24:45.923Z,46944
2017-10-09T12:25:48.361Z,44256
2017-10-09T12:26:50.789Z,53408
2017-10-09T12:27:53.231Z,48256
2017-10-09T12:28:55.659Z,84640
2017-10-09T12:29:58.098Z,75040
2017-10-09T12:31:00.525Z,77088
2017-10-09T12:32:02.961Z,46400
2017-10-09T12:33:05.390Z,42944
2017-10-09T12:34:07.821Z,40448
2017-10-09T12:35:10.261Z,32096
2017-10-09T12:36:13.035Z,28416
2017-10-09T12:37:15.471Z,30496
2017-10-09T12:38:17.911Z,20704
2017-10-09T12:39:20.343Z,23104
2017-10-09T12:40:22.782Z,44224
2017-10-09T12:41:25.213Z,38880
2017-10-09T12:42:27.999Z,66912
2017-10-09T12:43:30.776Z,67808
2017-10-09T12:44:33.590Z,56704
2017-10-09T12:45:36.219Z,60512
2017-10-09T12:46:38.661Z,57664
2017-10-09T12:47:41.084Z,59520
2017-10-09T12:48:43.526Z,54240
2017-10-09T12:49:45.962Z,47776
2017-10-09T12:50:48.796Z,53600
2017-10-09T12:51:51.237Z,52704
2017-10-09T12:52:53.671Z,48672
2017-10-09T12:53:56.108Z,54048
2017-10-09T12:54:58.543Z,43360
2017-10-09T12:56:00.977Z,46368
2017-10-09T12:57:03.432Z,44832
2017-10-09T12:58:05.865Z,17204
2017-10-09T12:59:08.311Z,36512
2017-10-09T13:00:10.741Z,34112
2017-10-09T13:01:13.183Z,25600
2017-10-09T13:02:15.627Z,23040
2017-10-09T13:03:18.061Z,18764
2017-10-09T13:04:20.489Z,36384
2017-10-09T13:05:22.954Z,37088
2017-10-09T13:06:25.386Z,37024
2017-10-09T13:07:27.834Z,37248
2017-10-09T13:08:30.618Z,33248
2017-10-09T13:09:33.057Z,21856
2017-10-09T13:10:35.504Z,22208
2017-10-09T13:11:38.062Z,18252
2017-10-09T13:12:41.012Z,27616
2017-10-09T13:13:43.525Z,26176
2017-10-09T13:14:49.276Z,24064
2017-10-09T13:15:53.690Z,21888
2017-10-09T13:17:00.618Z,29376
2017-10-09T13:18:04.419Z,40896
2017-10-09T13:19:10.342Z,30240
2017-10-09T13:20:15.495Z,42176
2017-10-09T13:21:22.824Z,45504
2017-10-09T13:22:26.920Z,43840
2017-10-09T13:23:30.209Z,37248
2017-10-09T13:24:35.886Z,34464
2017-10-09T13:25:40.228Z,29408
2017-10-09T13:26:46.815Z,17852
2017-10-09T13:27:49.284Z,21984
2017-10-09T13:28:51.749Z,17920
2017-10-09T13:29:54.265Z,38208
2017-10-09T13:30:57.022Z,19424
2017-10-09T13:31:59.564Z,21536
2017-10-09T13:33:02.326Z,16564
2017-10-09T13:34:04.766Z,13680
2017-10-09T13:35:07.209Z,14576
2017-10-09T13:36:09.984Z,21408
2017-10-09T13:37:12.430Z,26496
2017-10-09T13:38:14.869Z,29760
2017-10-09T13:39:17.303Z,12196
2017-10-09T13:40:19.741Z,11804
2017-10-09T13:41:22.185Z,12240
2017-10-09T13:42:24.616Z,25760
2017-10-09T13:43:27.054Z,21952
2017-10-09T13:44:29.484Z,14964
2017-10-09T13:45:31.938Z,15040
2017-10-09T13:46:34.376Z,19456
2017-10-09T13:47:36.807Z,48032
2017-10-09T13:48:39.252Z,48448
2017-10-09T13:49:41.690Z,44384
2017-10-09T13:50:44.174Z,30080
2017-10-09T13:51:46.659Z,29120
2017-10-09T13:52:49.104Z,20128
2017-10-09T13:53:51.538Z,19776
2017-10-09T13:54:54.074Z,27200
2017-10-09T13:55:56.574Z,29184
2017-10-09T13:56:59.312Z,23168
2017-10-09T13:58:02.039Z,28256
2017-10-09T13:59:04.955Z,14860
2017-10-09T14:00:07.437Z,12388
2017-10-09T14:01:09.975Z,12528
2017-10-09T14:02:12.640Z,11920
2017-10-09T14:03:15.173Z,11624
2017-10-09T14:04:17.704Z,14116
2017-10-09T14:05:20.144Z,15912
2017-10-09T14:06:22.923Z,12472
2017-10-09T14:07:25.364Z,12792
2017-10-09T14:08:27.800Z,15120
2017-10-09T14:09:30.243Z,19200
2017-10-09T14:10:32.678Z,13332